Time,TemperatureF,DewpointF,PressureIn,WindDirection,WindDirectionDegrees,WindSpeedMPH,WindSpeedGustMPH,Humidity,HourlyPrecipIn,Conditions,Clouds,dailyrainin,SoftwareType,DateUTC
2013-01-23 00:04:00,31.1,14.6,30.35,N/A,-737280,0.0,-999.0,50,0.00,,,0.00,Wunderground v.1.15,2013-01-23 05:04:00,
2013-01-23 00:09:00,31.1,14.1,30.35,West,270,0.0,-999.0,49,0.00,,,0.00,Wunderground v.1.15,2013-01-23 05:09:00,
2013-01-23 00:14:00,31.1,14.1,30.35,West,270,0.0,-999.0,49,0.00,,,0.00,Wunderground v.1.15,2013-01-23 05:14:00,
2013-01-23 00:19:00,31.1,13.7,30.35,West,270,0.0,-999.0,48,0.00,,,0.00,Wunderground v.1.15,2013-01-23 05:19:00,
2013-01-23 00:24:00,31.1,14.1,30.35,West,270,0.0,-999.0,49,0.00,,,0.00,Wunderground v.1.15,2013-01-23 05:24:00,
2013-01-23 00:29:00,31.1,13.7,30.35,West,270,0.0,-999.0,48,0.00,,,0.00,Wunderground v.1.15,2013-01-23 05:29:00,
2013-01-23 00:34:00,31.1,15.1,30.35,N/A,-737280,0.0,-999.0,51,0.00,,,0.00,Wunderground v.1.15,2013-01-23 05:34:00,
2013-01-23 00:39:00,31.1,14.6,30.35,N/A,-737280,0.0,-999.0,50,0.00,,,0.00,Wunderground v.1.15,2013-01-23 05:39:00,
2013-01-23 00:44:00,31.1,15.1,30.36,West,270,0.0,-999.0,51,0.00,,,0.00,Wunderground v.1.15,2013-01-23 05:44:00,
2013-01-23 00:49:00,31.1,14.6,30.35,West,270,0.0,-999.0,50,0.00,,,0.00,Wunderground v.1.15,2013-01-23 05:49:00,
2013-01-23 00:54:00,31.0,14.5,30.35,N/A,-737280,0.0,-999.0,50,0.00,,,0.00,Wunderground v.1.15,2013-01-23 05:54:00,
2013-01-23 00:59:00,31.0,15.4,30.35,N/A,-737280,0.0,-999.0,52,0.00,,,0.00,Wunderground v.1.15,2013-01-23 05:59:00,
2013-01-23 01:04:00,31.0,15.0,30.35,N/A,-737280,0.0,-999.0,51,0.00,,,0.00,Wunderground v.1.15,2013-01-23 06:04:00,
2013-01-23 01:09:00,31.0,15.4,30.36,N/A,-737280,0.0,-999.0,52,0.00,,,0.00,Wunderground v.1.15,2013-01-23 06:09:00,
2013-01-23 01:14:00,30.9,16.6,30.35,N/A,-737280,0.0,-999.0,55,0.00,,,0.00,Wunderground v.1.15,2013-01-23 06:14:00,
2013-01-23 01:19:00,30.9,16.2,30.36,N/A,-737280,0.0,-999.0,54,0.00,,,0.00,Wunderground v.1.15,2013-01-23 06:19:00,
2013-01-23 01:24:00,30.9,15.8,30.36,N/A,-737280,0.0,-999.0,53,0.00,,,0.00,Wunderground v.1.15,2013-01-23 06:24:00,
2013-01-23 01:29:00,30.8,16.1,30.35,N/A,-737280,0.0,-999.0,54,0.00,,,0.00,Wunderground v.1.15,2013-01-23 06:29:00,
2013-01-23 01:34:00,30.8,16.1,30.35,West,270,0.0,-999.0,54,0.00,,,0.00,Wunderground v.1.15,2013-01-23 06:34:00,
2013-01-23 01:39:00,30.8,14.8,30.35,West,270,0.0,-999.0,51,0.00,,,0.00,Wunderground v.1.15,2013-01-23 06:39:00,
2013-01-23 01:44:00,30.8,14.8,30.35,N/A,-737280,0.0,-999.0,51,0.00,,,0.00,Wunderground v.1.15,2013-01-23 06:44:00,
2013-01-23 01:49:00,30.7,14.7,30.35,West,270,0.0,-999.0,51,0.00,,,0.00,Wunderground v.1.15,2013-01-23 06:49:00,
2013-01-23 01:54:00,30.7,15.1,30.35,West,270,0.0,-999.0,52,0.00,,,0.00,Wunderground v.1.15,2013-01-23 06:54:00,
2013-01-23 01:59:00,30.7,15.6,30.35,West,270,0.0,-999.0,53,0.00,,,0.00,Wunderground v.1.15,2013-01-23 06:59:00,
2013-01-23 02:04:00,30.7,14.7,30.35,West,270,0.0,-999.0,51,0.00,,,0.00,Wunderground v.1.15,2013-01-23 07:04:00,
2013-01-23 02:09:00,30.7,14.2,30.35,N/A,-737280,0.0,-999.0,50,0.00,,,0.00,Wunderground v.1.15,2013-01-23 07:09:00,
2013-01-23 02:14:00,30.7,14.7,30.35,West,270,0.0,-999.0,51,0.00,,,0.00,Wunderground v.1.15,2013-01-23 07:14:00,
2013-01-23 02:19:00,30.7,14.2,30.35,West,270,0.0,-999.0,50,0.00,,,0.00,Wunderground v.1.15,2013-01-23 07:19:00,
2013-01-23 02:24:00,30.7,14.7,30.35,N/A,-737280,0.0,-999.0,51,0.00,,,0.00,Wunderground v.1.15,2013-01-23 07:24:00,
2013-01-23 02:29:00,30.7,15.6,30.35,West,270,0.0,-999.0,53,0.00,,,0.00,Wunderground v.1.15,2013-01-23 07:29:00,
2013-01-23 02:34:00,30.7,15.1,30.35,N/A,-737280,0.0,-999.0,52,0.00,,,0.00,Wunderground v.1.15,2013-01-23 07:34:00,
2013-01-23 02:39:00,30.7,15.1,30.35,N/A,-737280,0.0,-999.0,52,0.00,,,0.00,Wunderground v.1.15,2013-01-23 07:39:00,
2013-01-23 02:44:00,30.7,14.7,30.35,West,270,0.0,-999.0,51,0.00,,,0.00,Wunderground v.1.15,2013-01-23 07:44:00,
2013-01-23 02:49:00,30.7,15.1,30.35,West,270,0.0,-999.0,52,0.00,,,0.00,Wunderground v.1.15,2013-01-23 07:49:00,
2013-01-23 02:54:00,30.7,13.3,30.35,North,0,1.0,-999.0,48,0.00,,,0.00,Wunderground v.1.15,2013-01-23 07:54:00,
2013-01-23 02:59:00,30.7,13.8,30.36,North,0,0.0,-999.0,49,0.00,,,0.00,Wunderground v.1.15,2013-01-23 07:59:00,
2013-01-23 03:04:00,30.7,13.8,30.36,N/A,-737280,0.0,-999.0,49,0.00,,,0.00,Wunderground v.1.15,2013-01-23 08:04:00,
2013-01-23 03:09:00,30.7,14.7,30.36,North,0,0.0,-999.0,51,0.00,,,0.00,Wunderground v.1.15,2013-01-23 08:09:00,
2013-01-23 03:14:00,30.7,14.2,30.36,N/A,-737280,0.0,-999.0,50,0.00,,,0.00,Wunderground v.1.15,2013-01-23 08:14:00,
2013-01-23 03:19:00,30.7,15.1,30.36,N/A,-737280,0.0,-999.0,52,0.00,,,0.00,Wunderground v.1.15,2013-01-23 08:19:00,
2013-01-23 03:24:00,30.7,14.7,30.36,N/A,-737280,0.0,-999.0,51,0.00,,,0.00,Wunderground v.1.15,2013-01-23 08:24:00,
2013-01-23 03:29:00,30.7,15.1,30.36,North,0,0.0,-999.0,52,0.00,,,0.00,Wunderground v.1.15,2013-01-23 08:29:00,
2013-01-23 03:34:00,30.7,14.7,30.36,North,0,0.0,-999.0,51,0.00,,,0.00,Wunderground v.1.15,2013-01-23 08:34:00,
2013-01-23 03:39:00,30.7,14.7,30.36,North,0,0.0,-999.0,51,0.00,,,0.00,Wunderground v.1.15,2013-01-23 08:39:00,
2013-01-23 03:44:00,30.7,14.7,30.36,North,0,0.0,-999.0,51,0.00,,,0.00,Wunderground v.1.15,2013-01-23 08:44:00,
2013-01-23 03:49:00,30.7,14.7,30.36,North,0,0.0,-999.0,51,0.00,,,0.00,Wunderground v.1.15,2013-01-23 08:49:00,
2013-01-23 03:54:00,30.7,14.7,30.36,North,0,0.0,-999.0,51,0.00,,,0.00,Wunderground v.1.15,2013-01-23 08:54:00,
2013-01-23 03:59:00,30.7,15.1,30.35,North,0,0.0,-999.0,52,0.00,,,0.00,Wunderground v.1.15,2013-01-23 08:59:00,
2013-01-23 04:04:00,30.7,15.1,30.35,N/A,-737280,0.0,-999.0,52,0.00,,,0.00,Wunderground v.1.15,2013-01-23 09:04:00,
2013-01-23 04:09:00,30.7,14.7,30.35,N/A,-737280,0.0,-999.0,51,0.00,,,0.00,Wunderground v.1.15,2013-01-23 09:09:00,
2013-01-23 04:14:00,30.7,15.1,30.35,N/A,-737280,0.0,-999.0,52,0.00,,,0.00,Wunderground v.1.15,2013-01-23 09:14:00,
2013-01-23 04:19:00,30.7,16.0,30.34,N/A,-737280,0.0,-999.0,54,0.00,,,0.00,Wunderground v.1.15,2013-01-23 09:19:00,
2013-01-23 04:24:00,30.7,14.2,30.34,N/A,-737280,0.0,-999.0,50,0.00,,,0.00,Wunderground v.1.15,2013-01-23 09:24:00,
2013-01-23 04:29:00,30.7,13.8,30.35,N/A,-737280,0.0,-999.0,49,0.00,,,0.00,Wunderground v.1.15,2013-01-23 09:29:00,
2013-01-23 04:34:00,30.7,14.2,30.35,N/A,-737280,0.0,-999.0,50,0.00,,,0.00,Wunderground v.1.15,2013-01-23 09:34:00,
2013-01-23 04:39:00,30.7,13.3,30.34,N/A,-737280,0.0,-999.0,48,0.00,,,0.00,Wunderground v.1.15,2013-01-23 09:39:00,
2013-01-23 04:44:00,30.7,13.8,30.35,N/A,-737280,0.0,-999.0,49,0.00,,,0.00,Wunderground v.1.15,2013-01-23 09:44:00,
2013-01-23 04:49:00,30.7,13.8,30.35,N/A,-737280,0.0,-999.0,49,0.00,,,0.00,Wunderground v.1.15,2013-01-23 09:49:00,
2013-01-23 04:54:00,30.7,14.2,30.35,N/A,-737280,0.0,-999.0,50,0.00,,,0.00,Wunderground v.1.15,2013-01-23 09:54:00,
2013-01-23 04:59:00,30.7,13.8,30.35,N/A,-737280,0.0,-999.0,49,0.00,,,0.00,Wunderground v.1.15,2013-01-23 09:59:00,
2013-01-23 05:04:00,30.6,14.1,30.35,N/A,-737280,0.0,-999.0,50,0.00,,,0.00,Wunderground v.1.15,2013-01-23 10:04:00,
2013-01-23 05:09:00,30.6,15.5,30.35,N/A,-737280,0.0,-999.0,53,0.00,,,0.00,Wunderground v.1.15,2013-01-23 10:09:00,
2013-01-23 05:14:00,30.6,15.5,30.35,N/A,-737280,0.0,-999.0,53,0.00,,,0.00,Wunderground v.1.15,2013-01-23 10:14:00,
2013-01-23 05:19:00,30.6,15.9,30.35,N/A,-737280,0.0,-999.0,54,0.00,,,0.00,Wunderground v.1.15,2013-01-23 10:19:00,
2013-01-23 05:24:00,30.6,16.7,30.35,N/A,-737280,0.0,-999.0,56,0.00,,,0.00,Wunderground v.1.15,2013-01-23 10:24:00,
2013-01-23 05:29:00,30.6,16.7,30.35,N/A,-737280,0.0,-999.0,56,0.00,,,0.00,Wunderground v.1.15,2013-01-23 10:29:00,
2013-01-23 05:34:00,30.5,16.2,30.35,N/A,-737280,0.0,-999.0,55,0.00,,,0.00,Wunderground v.1.15,2013-01-23 10:34:00,
2013-01-23 05:39:00,30.4,17.0,30.35,N/A,-737280,0.0,-999.0,57,0.00,,,0.00,Wunderground v.1.15,2013-01-23 10:39:00,
2013-01-23 05:50:00,30.3,17.3,30.35,N/A,-737280,0.0,-999.0,58,0.00,,,0.00,Wunderground v.1.15,2013-01-23 10:50:00,
2013-01-23 06:00:00,30.0,17.8,30.36,North,8,0.0,0.0,60,0.00,,,0.00,Wunderground v.1.15,2013-01-23 11:00:00,
2013-01-23 06:10:00,29.9,18.8,30.36,North,8,0.0,0.0,63,0.00,,,0.00,Wunderground v.1.15,2013-01-23 11:10:00,
2013-01-23 06:15:00,29.9,18.5,30.36,North,8,0.0,0.0,62,0.00,,,0.00,Wunderground v.1.15,2013-01-23 11:15:00,
2013-01-23 06:20:00,29.9,18.5,30.36,North,8,0.0,0.0,62,0.00,,,0.00,Wunderground v.1.15,2013-01-23 11:20:00,
2013-01-23 06:30:00,29.9,18.1,30.36,North,8,0.0,0.0,61,0.00,,,0.00,Wunderground v.1.15,2013-01-23 11:30:00,
2013-01-23 06:40:00,29.9,16.5,30.36,North,8,0.0,0.0,57,0.00,,,0.00,Wunderground v.1.15,2013-01-23 11:40:00,
2013-01-23 06:45:00,29.9,16.1,30.37,North,8,0.0,0.0,56,0.00,,,0.00,Wunderground v.1.15,2013-01-23 11:45:00,
2013-01-23 06:50:00,30.0,16.6,30.37,North,8,0.0,0.0,57,0.00,,,0.00,Wunderground v.1.15,2013-01-23 11:50:00,
2013-01-23 06:55:00,30.0,16.6,30.37,North,8,0.0,0.0,57,0.00,,,0.00,Wunderground v.1.15,2013-01-23 11:55:00,
2013-01-23 07:00:00,30.0,17.4,30.36,North,8,0.0,0.0,59,0.00,,,0.00,Wunderground v.1.15,2013-01-23 12:00:00,
2013-01-23 07:10:00,30.1,17.9,30.36,North,8,0.0,0.0,60,0.00,,,0.00,Wunderground v.1.15,2013-01-23 12:10:00,
2013-01-23 07:20:00,30.1,16.3,30.36,North,8,0.0,0.0,56,0.00,,,0.00,Wunderground v.1.15,2013-01-23 12:20:00,
2013-01-23 07:25:00,30.1,15.9,30.36,North,8,0.0,0.0,55,0.00,,,0.00,Wunderground v.1.15,2013-01-23 12:25:00,
2013-01-23 07:30:00,30.1,16.3,30.36,North,8,0.0,0.0,56,0.00,,,0.00,Wunderground v.1.15,2013-01-23 12:30:00,
2013-01-23 07:35:00,30.1,16.3,30.36,North,8,0.0,0.0,56,0.00,,,0.00,Wunderground v.1.15,2013-01-23 12:35:00,
2013-01-23 07:40:00,30.1,16.3,30.37,North,8,0.0,0.0,56,0.00,,,0.00,Wunderground v.1.15,2013-01-23 12:40:00,
2013-01-23 07:45:00,30.1,15.9,30.37,North,8,0.0,0.0,55,0.00,,,0.00,Wunderground v.1.15,2013-01-23 12:45:00,
2013-01-23 07:50:00,30.1,16.3,30.37,North,8,0.0,0.0,56,0.00,,,0.00,Wunderground v.1.15,2013-01-23 12:50:00,
2013-01-23 07:55:00,30.1,17.1,30.37,North,8,0.0,0.0,58,0.00,,,0.00,Wunderground v.1.15,2013-01-23 12:55:00,
2013-01-23 08:00:00,30.2,16.8,30.37,North,8,0.0,0.0,57,0.00,,,0.00,Wunderground v.1.15,2013-01-23 13:00:00,
2013-01-23 08:10:00,30.2,17.6,30.37,North,8,0.0,0.0,59,0.00,,,0.00,Wunderground v.1.15,2013-01-23 13:10:00,
2013-01-23 08:15:00,30.2,16.4,30.37,North,8,0.0,0.0,56,0.00,,,0.00,Wunderground v.1.15,2013-01-23 13:15:00,
2013-01-23 08:25:00,30.3,16.5,30.37,North,8,0.0,0.0,56,0.00,,,0.00,Wunderground v.1.15,2013-01-23 13:25:00,
2013-01-23 08:30:00,30.4,17.0,30.37,North,8,0.0,0.0,57,0.00,,,0.00,Wunderground v.1.15,2013-01-23 13:30:00,
2013-01-23 08:35:00,30.5,15.8,30.36,North,8,0.0,0.0,54,0.00,,,0.00,Wunderground v.1.15,2013-01-23 13:35:00,
2013-01-23 08:40:00,30.5,15.4,30.36,North,8,0.0,0.0,53,0.00,,,0.00,Wunderground v.1.15,2013-01-23 13:40:00,
2013-01-23 08:45:00,30.6,15.5,30.36,North,8,0.0,0.0,53,0.00,,,0.00,Wunderground v.1.15,2013-01-23 13:45:00,
2013-01-23 08:50:00,30.7,15.1,30.36,North,8,0.0,0.0,52,0.00,,,0.00,Wunderground v.1.15,2013-01-23 13:50:00,
2013-01-23 08:55:00,30.8,15.2,30.36,North,8,0.0,0.0,52,0.00,,,0.00,Wunderground v.1.15,2013-01-23 13:55:00,
2013-01-23 09:00:00,31.0,15.0,30.37,North,8,0.0,0.0,51,0.00,,,0.00,Wunderground v.1.15,2013-01-23 14:00:00,
2013-01-23 09:10:00,31.4,16.2,30.36,North,8,0.0,0.0,53,0.00,,,0.00,Wunderground v.1.15,2013-01-23 14:10:00,
2013-01-23 09:15:00,31.5,15.9,30.37,North,8,0.0,0.0,52,0.00,,,0.00,Wunderground v.1.15,2013-01-23 14:15:00,
2013-01-23 09:20:00,31.7,15.2,30.37,North,8,0.0,0.0,50,0.00,,,0.00,Wunderground v.1.15,2013-01-23 14:20:00,
2013-01-23 09:25:00,31.9,14.9,30.37,East,80,0.0,0.0,49,0.00,,,0.00,Wunderground v.1.15,2013-01-23 14:25:00,
2013-01-23 09:30:00,32.1,15.1,30.38,East,80,0.0,0.0,49,0.00,,,0.00,Wunderground v.1.15,2013-01-23 14:30:00,
2013-01-23 09:35:00,32.3,15.7,30.38,East,80,0.0,0.0,50,0.00,,,0.00,Wunderground v.1.15,2013-01-23 14:35:00,
2013-01-23 09:40:00,32.5,16.4,30.38,East,79,0.0,0.0,51,0.00,,,0.00,Wunderground v.1.15,2013-01-23 14:40:00,
2013-01-23 09:45:00,32.7,15.1,30.38,East,79,0.0,0.0,48,0.00,,,0.00,Wunderground v.1.15,2013-01-23 14:45:00,
2013-01-23 09:54:00,33.0,17.3,30.38,East,79,0.0,0.0,52,0.00,,,0.00,Wunderground v.1.15,2013-01-23 14:54:00,
2013-01-23 10:00:00,33.2,15.6,30.38,East,79,0.0,0.0,48,0.00,,,0.00,Wunderground v.1.15,2013-01-23 15:00:00,
2013-01-23 10:10:00,33.5,15.9,30.38,East,79,0.0,0.0,48,0.00,,,0.00,Wunderground v.1.15,2013-01-23 15:10:00,
2013-01-23 10:15:00,33.8,15.7,30.39,East,79,0.0,1.0,47,0.00,,,0.00,Wunderground v.1.15,2013-01-23 15:15:00,
2013-01-23 10:20:00,34.1,16.4,30.39,East,79,0.0,1.0,48,0.00,,,0.00,Wunderground v.1.15,2013-01-23 15:20:00,
2013-01-23 10:25:00,34.4,16.2,30.38,East,81,0.0,2.0,47,0.00,,,0.00,Wunderground v.1.15,2013-01-23 15:25:00,
2013-01-23 10:30:00,34.8,17.1,30.38,ENE,69,1.0,2.0,48,0.00,,,0.00,Wunderground v.1.15,2013-01-23 15:30:00,
2013-01-23 10:40:00,36.2,17.9,30.37,NE,54,1.0,1.0,47,0.00,,,0.00,Wunderground v.1.15,2013-01-23 15:40:00,
2013-01-23 10:45:00,36.9,18.0,30.38,West,273,0.0,1.0,46,0.00,,,0.00,Wunderground v.1.15,2013-01-23 15:45:00,
2013-01-23 10:50:00,37.7,18.2,30.37,South,173,0.0,0.0,45,0.00,,,0.00,Wunderground v.1.15,2013-01-23 15:50:00,
2013-01-23 10:55:00,38.2,18.2,30.38,South,173,0.0,0.0,44,0.00,,,0.00,Wunderground v.1.15,2013-01-23 15:55:00,
2013-01-23 11:00:00,38.8,18.2,30.38,ENE,73,0.0,1.0,43,0.00,,,0.00,Wunderground v.1.15,2013-01-23 16:00:00,
2013-01-23 11:10:00,39.9,19.2,30.37,East,91,1.0,2.0,43,0.00,,,0.00,Wunderground v.1.15,2013-01-23 16:10:00,
2013-01-23 11:15:00,40.2,17.8,30.37,ESE,102,1.0,2.0,40,0.00,,,0.00,Wunderground v.1.15,2013-01-23 16:15:00,
2013-01-23 11:25:00,40.9,19.5,30.37,ENE,64,1.0,2.0,42,0.00,,,0.00,Wunderground v.1.15,2013-01-23 16:25:00,
2013-01-23 11:30:00,41.3,19.3,30.36,NE,49,1.0,1.0,41,0.00,,,0.00,Wunderground v.1.15,2013-01-23 16:30:00,
2013-01-23 11:35:00,41.4,18.9,30.36,NNE,22,1.0,1.0,40,0.00,,,0.00,Wunderground v.1.15,2013-01-23 16:35:00,
2013-01-23 11:45:00,42.0,20.0,30.35,East,82,1.0,4.0,41,0.00,,,0.00,Wunderground v.1.15,2013-01-23 16:45:00,
2013-01-23 11:50:00,42.3,19.7,30.35,SE,127,1.0,1.0,40,0.00,,,0.00,Wunderground v.1.15,2013-01-23 16:50:00,
2013-01-23 11:55:00,42.6,20.5,30.34,East,90,1.0,3.0,41,0.00,,,0.00,Wunderground v.1.15,2013-01-23 16:55:00,
2013-01-23 12:00:00,42.6,21.1,30.34,ESE,115,2.0,7.0,42,0.00,,,0.00,Wunderground v.1.15,2013-01-23 17:00:00,
2013-01-23 12:10:00,43.0,20.9,30.33,ESE,112,2.0,3.0,41,0.00,,,0.00,Wunderground v.1.15,2013-01-23 17:10:00,
2013-01-23 12:15:00,43.0,20.9,30.33,SE,132,2.0,3.0,41,0.00,,,0.00,Wunderground v.1.15,2013-01-23 17:15:00,
2013-01-23 12:20:00,43.2,21.6,30.33,SW,230,2.0,2.0,42,0.00,,,0.00,Wunderground v.1.15,2013-01-23 17:20:00,
2013-01-23 12:25:00,43.6,21.4,30.32,WNW,289,1.0,4.0,41,0.00,,,0.00,Wunderground v.1.15,2013-01-23 17:25:00,
2013-01-23 12:30:00,43.6,21.4,30.32,SW,215,2.0,5.0,41,0.00,,,0.00,Wunderground v.1.15,2013-01-23 17:30:00,
2013-01-23 12:35:00,43.8,21.0,30.32,East,98,2.0,5.0,40,0.00,,,0.00,Wunderground v.1.15,2013-01-23 17:35:00,
2013-01-23 12:45:00,44.1,21.3,30.31,West,279,2.0,6.0,40,0.00,,,0.00,Wunderground v.1.15,2013-01-23 17:45:00,
2013-01-23 12:55:00,44.3,22.1,30.29,SE,143,2.0,5.0,41,0.00,,,0.00,Wunderground v.1.15,2013-01-23 17:55:00,
2013-01-23 13:00:00,44.6,22.3,30.29,SW,216,1.0,1.0,41,0.00,,,0.00,Wunderground v.1.15,2013-01-23 18:00:00,
2013-01-23 13:10:00,45.1,22.8,30.28,NNW,334,2.0,2.0,41,0.00,,,0.00,Wunderground v.1.15,2013-01-23 18:10:00,
2013-01-23 13:15:00,45.2,23.4,30.28,SE,144,2.0,2.0,42,0.00,,,0.00,Wunderground v.1.15,2013-01-23 18:15:00,
2013-01-23 13:20:00,45.4,23.0,30.28,WNW,290,2.0,5.0,41,0.00,,,0.00,Wunderground v.1.15,2013-01-23 18:20:00,
2013-01-23 13:25:00,45.9,24.6,30.28,East,100,1.0,5.0,43,0.00,,,0.00,Wunderground v.1.15,2013-01-23 18:25:00,
2013-01-23 13:35:00,46.3,23.9,30.26,East,81,2.0,5.0,41,0.00,,,0.00,Wunderground v.1.15,2013-01-23 18:35:00,
2013-01-23 13:40:00,46.4,22.8,30.26,SW,233,2.0,2.0,39,0.00,,,0.00,Wunderground v.1.15,2013-01-23 18:40:00,
2013-01-23 13:45:00,46.5,23.4,30.26,ESE,103,2.0,2.0,40,0.00,,,0.00,Wunderground v.1.15,2013-01-23 18:45:00,
2013-01-23 13:50:00,46.6,24.1,30.26,NE,42,1.0,4.0,41,0.00,,,0.00,Wunderground v.1.15,2013-01-23 18:50:00,
2013-01-23 13:55:00,46.6,23.5,30.25,WSW,254,1.0,4.0,40,0.00,,,0.00,Wunderground v.1.15,2013-01-23 18:55:00,
2013-01-23 14:00:00,46.6,23.5,30.25,North,6,2.0,2.0,40,0.00,,,0.00,Wunderground v.1.15,2013-01-23 19:00:00,
2013-01-23 14:10:00,46.7,24.2,30.24,West,265,2.0,5.0,41,0.00,,,0.00,Wunderground v.1.15,2013-01-23 19:10:00,
2013-01-23 14:20:00,47.0,25.1,30.24,SSE,156,2.0,2.0,42,0.00,,,0.00,Wunderground v.1.15,2013-01-23 19:20:00,
2013-01-23 14:25:00,47.1,25.2,30.24,WSW,247,2.0,2.0,42,0.00,,,0.00,Wunderground v.1.15,2013-01-23 19:25:00,
2013-01-23 14:35:00,47.2,25.3,30.23,NW,312,1.0,2.0,42,0.00,,,0.00,Wunderground v.1.15,2013-01-23 19:35:00,
2013-01-23 14:40:00,47.3,24.8,30.23,SE,133,1.0,1.0,41,0.00,,,0.00,Wunderground v.1.15,2013-01-23 19:40:00,
2013-01-23 14:45:00,47.2,25.3,30.23,ESE,106,2.0,2.0,42,0.00,,,0.00,Wunderground v.1.15,2013-01-23 19:45:00,
2013-01-23 14:50:00,47.1,25.2,30.22,ENE,73,2.0,5.0,42,0.00,,,0.00,Wunderground v.1.15,2013-01-23 19:50:00,
2013-01-23 14:55:00,46.9,25.0,30.22,ESE,104,3.0,5.0,42,0.00,,,0.00,Wunderground v.1.15,2013-01-23 19:55:00,
2013-01-23 15:04:00,47.1,25.7,30.21,SE,135,3.0,3.0,43,0.00,,,0.00,Wunderground v.1.15,2013-01-23 20:04:00,
2013-01-23 15:10:00,47.0,26.2,30.21,West,262,2.0,2.0,44,0.00,,,0.00,Wunderground v.1.15,2013-01-23 20:10:00,
2013-01-23 15:15:00,47.1,25.7,30.21,SSE,167,2.0,3.0,43,0.00,,,0.00,Wunderground v.1.15,2013-01-23 20:15:00,
2013-01-23 15:20:00,47.2,26.9,30.20,East,99,2.0,2.0,45,0.00,,,0.00,Wunderground v.1.15,2013-01-23 20:20:00,
2013-01-23 15:25:00,47.2,26.9,30.20,NNE,29,1.0,2.0,45,0.00,,,0.00,Wunderground v.1.15,2013-01-23 20:25:00,
2013-01-23 15:30:00,47.4,27.1,30.19,WSW,249,1.0,1.0,45,0.00,,,0.00,Wunderground v.1.15,2013-01-23 20:30:00,
2013-01-23 15:35:00,47.6,27.3,30.19,West,264,2.0,5.0,45,0.00,,,0.00,Wunderground v.1.15,2013-01-23 20:35:00,
2013-01-23 15:45:00,47.9,27.6,30.19,SE,125,1.0,4.0,45,0.00,,,0.00,Wunderground v.1.15,2013-01-23 20:45:00,
2013-01-23 15:50:00,48.1,27.7,30.19,SSE,148,2.0,2.0,45,0.00,,,0.00,Wunderground v.1.15,2013-01-23 20:50:00,
2013-01-23 16:00:00,48.5,29.2,30.19,East,82,2.0,2.0,47,0.00,,,0.00,Wunderground v.1.15,2013-01-23 21:00:00,
2013-01-23 16:10:00,48.8,28.4,30.18,ESE,110,2.0,2.0,45,0.00,,,0.00,Wunderground v.1.15,2013-01-23 21:10:00,
2013-01-23 16:20:00,48.9,29.0,30.18,East,88,1.0,1.0,46,0.00,,,0.00,Wunderground v.1.15,2013-01-23 21:20:00,
2013-01-23 16:25:00,48.9,29.0,30.17,East,94,1.0,1.0,46,0.00,,,0.00,Wunderground v.1.15,2013-01-23 21:25:00,
2013-01-23 16:30:00,48.9,29.5,30.18,ESE,106,1.0,1.0,47,0.00,,,0.00,Wunderground v.1.15,2013-01-23 21:30:00,
2013-01-23 16:40:00,49.0,29.6,30.17,West,275,1.0,1.0,47,0.00,,,0.00,Wunderground v.1.15,2013-01-23 21:40:00,
2013-01-23 16:45:00,49.1,29.7,30.17,WNW,291,1.0,2.0,47,0.00,,,0.00,Wunderground v.1.15,2013-01-23 21:45:00,
2013-01-23 16:50:00,49.2,29.3,30.17,WSW,254,1.0,3.0,46,0.00,,,0.00,Wunderground v.1.15,2013-01-23 21:50:00,
2013-01-23 16:55:00,49.2,28.7,30.17,West,280,2.0,4.0,45,0.00,,,0.00,Wunderground v.1.15,2013-01-23 21:55:00,
2013-01-23 17:00:00,49.3,29.9,30.17,West,260,2.0,2.0,47,0.00,,,0.00,Wunderground v.1.15,2013-01-23 22:00:00,
2013-01-23 17:09:00,49.4,29.5,30.17,SW,222,2.0,2.0,46,0.00,,,0.00,Wunderground v.1.15,2013-01-23 22:09:00,
2013-01-23 17:15:00,49.3,29.9,30.17,SE,131,1.0,2.0,47,0.00,,,0.00,Wunderground v.1.15,2013-01-23 22:15:00,
2013-01-23 17:20:00,49.2,29.8,30.17,WSW,251,1.0,1.0,47,0.00,,,0.00,Wunderground v.1.15,2013-01-23 22:20:00,
2013-01-23 17:25:00,49.1,29.7,30.17,SE,141,1.0,1.0,47,0.00,,,0.00,Wunderground v.1.15,2013-01-23 22:25:00,
2013-01-23 17:30:00,49.0,30.1,30.17,East,92,1.0,1.0,48,0.00,,,0.00,Wunderground v.1.15,2013-01-23 22:30:00,
2013-01-23 17:35:00,48.9,30.1,30.17,SSE,158,0.0,1.0,48,0.00,,,0.00,Wunderground v.1.15,2013-01-23 22:35:00,
2013-01-23 17:40:00,48.7,29.9,30.17,SSE,151,0.0,0.0,48,0.00,,,0.00,Wunderground v.1.15,2013-01-23 22:40:00,
2013-01-23 17:50:00,48.3,30.5,30.17,ENE,63,1.0,1.0,50,0.00,,,0.00,Wunderground v.1.15,2013-01-23 22:50:00,
2013-01-23 17:55:00,48.0,30.7,30.17,ENE,78,0.0,1.0,51,0.00,,,0.00,Wunderground v.1.15,2013-01-23 22:55:00,
2013-01-23 18:00:00,47.6,30.3,30.17,SSE,154,0.0,0.0,51,0.00,,,0.00,Wunderground v.1.15,2013-01-23 23:00:00,
2013-01-23 18:10:00,47.1,31.3,30.17,SSE,154,0.0,0.0,54,0.00,,,0.00,Wunderground v.1.15,2013-01-23 23:10:00,
2013-01-23 18:15:00,46.9,31.6,30.17,SSE,154,0.0,0.0,55,0.00,,,0.00,Wunderground v.1.15,2013-01-23 23:15:00,
2013-01-23 18:20:00,46.5,31.2,30.17,SSE,154,0.0,0.0,55,0.00,,,0.00,Wunderground v.1.15,2013-01-23 23:20:00,
2013-01-23 18:30:00,45.5,31.1,30.16,SSE,154,0.0,0.0,57,0.00,,,0.00,Wunderground v.1.15,2013-01-23 23:30:00,
2013-01-23 18:35:00,44.8,31.3,30.16,SSE,154,0.0,0.0,59,0.00,,,0.00,Wunderground v.1.15,2013-01-23 23:35:00,
2013-01-23 18:40:00,44.2,31.2,30.17,SSE,154,0.0,0.0,60,0.00,,,0.00,Wunderground v.1.15,2013-01-23 23:40:00,
2013-01-23 18:45:00,43.6,31.0,30.17,SSE,154,0.0,0.0,61,0.00,,,0.00,Wunderground v.1.15,2013-01-23 23:45:00,
2013-01-23 18:50:00,43.0,31.3,30.17,SSE,154,0.0,0.0,63,0.00,,,0.00,Wunderground v.1.15,2013-01-23 23:50:00,
2013-01-23 18:55:00,42.4,31.1,30.17,SSE,154,0.0,0.0,64,0.00,,,0.00,Wunderground v.1.15,2013-01-23 23:55:00,
2013-01-23 19:00:00,41.7,31.2,30.17,SSE,154,0.0,0.0,66,0.00,,,0.00,Wunderground v.1.15,2013-01-24 00:00:00,
2013-01-23 19:09:00,40.6,30.9,30.17,SSE,154,0.0,0.0,68,0.00,,,0.00,Wunderground v.1.15,2013-01-24 00:09:00,
2013-01-23 19:15:00,40.1,30.7,30.16,SSE,154,0.0,0.0,69,0.00,,,0.00,Wunderground v.1.15,2013-01-24 00:15:00,
2013-01-23 19:20:00,39.6,30.6,30.16,SSE,154,0.0,0.0,70,0.00,,,0.00,Wunderground v.1.15,2013-01-24 00:20:00,
2013-01-23 19:25:00,39.0,30.7,30.16,SSE,154,0.0,0.0,72,0.00,,,0.00,Wunderground v.1.15,2013-01-24 00:25:00,
2013-01-23 19:30:00,38.7,30.4,30.16,SSE,154,0.0,0.0,72,0.00,,,0.00,Wunderground v.1.15,2013-01-24 00:30:00,
2013-01-23 19:35:00,38.3,30.4,30.16,SSE,154,0.0,0.0,73,0.00,,,0.00,Wunderground v.1.15,2013-01-24 00:35:00,
2013-01-23 19:40:00,37.8,30.3,30.16,SSE,154,0.0,0.0,74,0.00,,,0.00,Wunderground v.1.15,2013-01-24 00:40:00,
2013-01-23 19:45:00,37.5,30.0,30.16,SSE,154,0.0,0.0,74,0.00,,,0.00,Wunderground v.1.15,2013-01-24 00:45:00,
2013-01-23 19:55:00,36.9,29.7,30.16,SSE,154,0.0,0.0,75,0.00,,,0.00,Wunderground v.1.15,2013-01-24 00:55:00,
2013-01-23 20:00:00,36.5,29.7,30.16,SSE,154,0.0,0.0,76,0.00,,,0.00,Wunderground v.1.15,2013-01-24 01:00:00,
2013-01-23 20:10:00,36.1,29.6,30.17,SSE,154,0.0,0.0,77,0.00,,,0.00,Wunderground v.1.15,2013-01-24 01:10:00,
2013-01-23 20:15:00,35.8,29.3,30.16,SSE,154,0.0,0.0,77,0.00,,,0.00,Wunderground v.1.15,2013-01-24 01:15:00,
2013-01-23 20:20:00,35.5,29.0,30.16,SSE,154,0.0,0.0,77,0.00,,,0.00,Wunderground v.1.15,2013-01-24 01:20:00,
2013-01-23 20:25:00,35.2,29.0,30.16,SSE,154,0.0,0.0,78,0.00,,,0.00,Wunderground v.1.15,2013-01-24 01:25:00,
2013-01-23 20:30:00,35.0,28.8,30.16,SSE,154,0.0,0.0,78,0.00,,,0.00,Wunderground v.1.15,2013-01-24 01:30:00,
2013-01-23 20:40:00,34.4,28.6,30.16,SSE,154,0.0,0.0,79,0.00,,,0.00,Wunderground v.1.15,2013-01-24 01:40:00,
2013-01-23 20:45:00,34.2,28.7,30.16,SSE,154,0.0,0.0,80,0.00,,,0.00,Wunderground v.1.15,2013-01-24 01:45:00,
2013-01-23 20:50:00,34.0,28.8,30.16,SSE,154,0.0,0.0,81,0.00,,,0.00,Wunderground v.1.15,2013-01-24 01:50:00,
2013-01-23 20:55:00,33.7,28.5,30.15,SSE,154,0.0,0.0,81,0.00,,,0.00,Wunderground v.1.15,2013-01-24 01:55:00,
2013-01-23 21:00:00,33.5,28.3,30.15,SSE,154,0.0,0.0,81,0.00,,,0.00,Wunderground v.1.15,2013-01-24 02:00:00,
2013-01-23 21:10:00,33.1,28.2,30.14,SSE,154,0.0,0.0,82,0.00,,,0.00,Wunderground v.1.15,2013-01-24 02:10:00,
2013-01-23 21:15:00,32.9,27.7,30.14,SSE,154,0.0,0.0,81,0.00,,,0.00,Wunderground v.1.15,2013-01-24 02:15:00,
2013-01-23 21:25:00,32.6,27.4,30.15,SSE,154,0.0,0.0,81,0.00,,,0.00,Wunderground v.1.15,2013-01-24 02:25:00,
2013-01-23 21:35:00,32.3,27.4,30.16,SSE,154,0.0,0.0,82,0.00,,,0.00,Wunderground v.1.15,2013-01-24 02:35:00,
2013-01-23 21:40:00,32.1,27.2,30.16,SSE,154,0.0,0.0,82,0.00,,,0.00,Wunderground v.1.15,2013-01-24 02:40:00,
2013-01-23 21:45:00,31.9,27.0,30.16,SSE,154,0.0,0.0,82,0.00,,,0.00,Wunderground v.1.15,2013-01-24 02:45:00,
2013-01-23 21:50:00,31.8,26.9,30.16,SSE,154,0.0,0.0,82,0.00,,,0.00,Wunderground v.1.15,2013-01-24 02:50:00,
2013-01-23 21:55:00,31.6,26.7,30.16,SSE,154,0.0,0.0,82,0.00,,,0.00,Wunderground v.1.15,2013-01-24 02:55:00,
2013-01-23 22:00:00,31.4,26.8,30.16,SSE,154,0.0,0.0,83,0.00,,,0.00,Wunderground v.1.15,2013-01-24 03:00:00,
2013-01-23 22:10:00,31.1,26.8,30.16,SSE,154,0.0,0.0,84,0.00,,,0.00,Wunderground v.1.15,2013-01-24 03:10:00,
2013-01-23 22:15:00,30.9,26.9,30.15,SSE,154,0.0,0.0,85,0.00,,,0.00,Wunderground v.1.15,2013-01-24 03:15:00,
2013-01-23 22:25:00,30.7,27.0,30.15,SSE,154,0.0,0.0,86,0.00,,,0.00,Wunderground v.1.15,2013-01-24 03:25:00,
2013-01-23 22:30:00,30.6,26.9,30.15,SSE,154,0.0,0.0,86,0.00,,,0.00,Wunderground v.1.15,2013-01-24 03:30:00,
2013-01-23 22:35:00,30.6,26.6,30.15,SSE,154,0.0,0.0,85,0.00,,,0.00,Wunderground v.1.15,2013-01-24 03:35:00,
2013-01-23 22:40:00,30.5,26.5,30.16,SSE,154,0.0,0.0,85,0.00,,,0.00,Wunderground v.1.15,2013-01-24 03:40:00,
2013-01-23 22:45:00,30.4,26.4,30.16,SSE,154,0.0,0.0,85,0.00,,,0.00,Wunderground v.1.15,2013-01-24 03:45:00,
2013-01-23 22:50:00,30.3,26.6,30.16,SSE,154,0.0,0.0,86,0.00,,,0.00,Wunderground v.1.15,2013-01-24 03:50:00,
2013-01-23 22:55:00,30.2,26.5,30.16,SSE,154,0.0,0.0,86,0.00,,,0.00,Wunderground v.1.15,2013-01-24 03:55:00,
2013-01-23 23:00:00,30.0,26.6,30.17,SSE,154,0.0,0.0,87,0.00,,,0.00,Wunderground v.1.15,2013-01-24 04:00:00,
2013-01-23 23:09:00,29.9,26.8,30.17,SSE,154,0.0,0.0,88,0.00,,,0.00,Wunderground v.1.15,2013-01-24 04:09:00,
2013-01-23 23:15:00,29.8,26.7,30.17,SSE,154,0.0,0.0,88,0.00,,,0.00,Wunderground v.1.15,2013-01-24 04:15:00,
2013-01-23 23:20:00,29.8,27.0,30.17,SSE,154,0.0,0.0,89,0.00,,,0.00,Wunderground v.1.15,2013-01-24 04:20:00,
2013-01-23 23:25:00,29.8,27.0,30.16,SSE,154,0.0,0.0,89,0.00,,,0.00,Wunderground v.1.15,2013-01-24 04:25:00,
2013-01-23 23:30:00,29.8,27.0,30.17,SSE,154,0.0,0.0,89,0.00,,,0.00,Wunderground v.1.15,2013-01-24 04:30:00,
2013-01-23 23:35:00,29.8,27.0,30.17,SSE,154,0.0,0.0,89,0.00,,,0.00,Wunderground v.1.15,2013-01-24 04:35:00,
2013-01-23 23:44:00,29.8,27.0,30.17,SSE,154,0.0,0.0,89,0.00,,,0.00,Wunderground v.1.15,2013-01-24 04:44:00,
2013-01-23 23:49:00,29.8,27.2,30.17,SSE,154,0.0,0.0,90,0.00,,,0.00,Wunderground v.1.15,2013-01-24 04:49:00,
2013-01-23 23:55:00,29.8,27.2,30.17,SSE,154,0.0,0.0,90,0.00,,,0.00,Wunderground v.1.15,2013-01-24 04:55:00,